createdAt,value
2019-04-04T00:01:03.000Z,3.93
2019-04-04T00:03:34.804Z,4.10
2019-04-04T00:06:06.670Z,4.09
2019-04-04T00:08:38.399Z,3.96
2019-04-04T00:11:11.125Z,3.93
2019-04-04T00:13:42.880Z,3.92
2019-04-04T00:16:16.122Z,4.07
2019-04-04T00:18:48.172Z,3.87
2019-04-04T00:21:19.902Z,4.15
2019-04-04T00:23:51.629Z,4.14
2019-04-04T00:26:23.443Z,3.95
2019-04-04T00:28:55.175Z,3.92
2019-04-04T00:31:27.101Z,4.01
2019-04-04T00:33:58.892Z,4.03
2019-04-04T00:36:33.826Z,4.13
2019-04-04T00:39:09.089Z,3.94
2019-04-04T00:41:39.940Z,4.04
2019-04-04T00:44:11.837Z,4.00
2019-04-04T00:46:43.643Z,3.90
2019-04-04T00:49:15.368Z,3.71
2019-04-04T00:51:47.604Z,3.98
2019-04-04T00:54:19.468Z,4.03
2019-04-04T00:56:51.232Z,4.01
2019-04-04T00:59:23.669Z,4.06
2019-04-04T01:01:56.999Z,4.03
2019-04-04T01:04:30.815Z,3.96
2019-04-04T01:07:04.835Z,3.98
2019-04-04T01:09:36.386Z,3.97
2019-04-04T01:12:08.238Z,3.67
2019-04-04T01:14:40.943Z,3.87
2019-04-04T01:17:12.756Z,3.71
2019-04-04T01:19:44.561Z,3.99
2019-04-04T01:22:16.298Z,3.85
2019-04-04T01:24:48.065Z,3.94
2019-04-04T01:27:20.115Z,3.75
2019-04-04T01:29:51.896Z,3.93
2019-04-04T01:32:23.733Z,3.93
2019-04-04T01:34:55.501Z,3.81
2019-04-04T01:37:27.876Z,4.01
2019-04-04T01:40:02.253Z,3.81
2019-04-04T01:42:34.014Z,3.98
2019-04-04T01:45:06.693Z,3.76
2019-04-04T01:47:38.785Z,3.65
2019-04-04T01:50:10.758Z,3.75
2019-04-04T01:52:42.502Z,3.77
2019-04-04T01:55:14.364Z,3.84
2019-04-04T01:57:46.240Z,3.70
2019-04-04T02:00:18.491Z,3.83
2019-04-04T02:02:51.896Z,3.74
2019-04-04T02:05:26.695Z,3.86
2019-04-04T02:07:58.858Z,3.96
2019-04-04T02:10:34.498Z,4.00
2019-04-04T02:13:05.295Z,3.90
2019-04-04T02:15:37.107Z,3.84
2019-04-04T02:18:08.839Z,4.05
2019-04-04T02:20:40.848Z,4.11
2019-04-04T02:23:12.596Z,4.00
2019-04-04T02:25:44.318Z,4.12
2019-04-04T02:28:16.079Z,3.85
2019-04-04T02:30:48.489Z,3.88
2019-04-04T02:33:21.002Z,3.80
2019-04-04T02:35:52.740Z,3.76
2019-04-04T02:38:28.100Z,3.86
2019-04-04T02:40:58.729Z,4.01
2019-04-04T02:43:30.524Z,3.89
2019-04-04T02:46:02.335Z,4.05
2019-04-04T02:48:34.034Z,4.16
2019-04-04T02:51:07.979Z,4.24
2019-04-04T02:53:39.218Z,4.25
2019-04-04T02:56:11.263Z,4.02
2019-04-04T02:58:45.867Z,3.99
2019-04-04T03:01:16.603Z,3.80
2019-04-04T03:03:49.142Z,4.01
2019-04-04T03:06:23.881Z,4.06
2019-04-04T03:08:54.759Z,4.10
2019-04-04T03:11:26.811Z,4.02
2019-04-04T03:14:03.471Z,4.19
2019-04-04T03:16:32.481Z,4.19
2019-04-04T03:19:04.353Z,4.23
2019-04-04T03:21:36.211Z,4.24
2019-04-04T03:24:08.086Z,4.23
2019-04-04T03:26:40.209Z,4.07
2019-04-04T03:29:12.056Z,4.19
2019-04-04T03:31:43.930Z,4.24
2019-04-04T03:34:15.885Z,4.28
2019-04-04T03:36:47.714Z,4.39
2019-04-04T03:39:20.475Z,4.36
2019-04-04T03:41:52.501Z,4.37
2019-04-04T03:44:24.350Z,4.36
2019-04-04T03:46:56.104Z,4.38
2019-04-04T03:49:27.909Z,4.41
2019-04-04T03:51:59.708Z,4.48
2019-04-04T03:54:31.531Z,4.41
2019-04-04T03:57:03.438Z,4.45
2019-04-04T03:59:35.226Z,4.35
2019-04-04T04:02:07.026Z,4.35
2019-04-04T04:04:38.778Z,4.49
2019-04-04T04:07:13.822Z,4.50
2019-04-04T04:09:44.694Z,4.46
2019-04-04T04:12:16.391Z,4.53
2019-04-04T04:14:48.106Z,4.48
2019-04-04T04:17:19.801Z,4.45
2019-04-04T04:19:51.528Z,4.48
2019-04-04T04:22:23.222Z,4.48
2019-04-04T04:24:55.977Z,4.39
2019-04-04T04:27:27.681Z,4.45
2019-04-04T04:30:02.074Z,4.49
2019-04-04T04:32:37.019Z,4.48
2019-04-04T04:35:08.615Z,4.52
2019-04-04T04:37:40.177Z,4.47
2019-04-04T04:40:15.146Z,4.48
2019-04-04T04:42:47.088Z,4.58
2019-04-04T04:45:18.791Z,4.48
2019-04-04T04:47:50.496Z,4.53
2019-04-04T04:50:22.260Z,4.53
2019-04-04T04:52:53.983Z,4.56
2019-04-04T04:55:27.211Z,4.61
2019-04-04T04:57:59.499Z,4.57
2019-04-04T05:00:31.247Z,4.63
2019-04-04T05:03:03.015Z,4.58
2019-04-04T05:05:34.725Z,4.41
2019-04-04T05:08:09.692Z,4.56
2019-04-04T05:10:39.802Z,4.43
2019-04-04T05:13:12.071Z,4.45
2019-04-04T05:15:43.769Z,4.54
2019-04-04T05:18:16.323Z,4.47
2019-04-04T05:20:48.916Z,4.55
2019-04-04T05:23:20.636Z,4.53
2019-04-04T05:25:54.241Z,4.67
2019-04-04T05:28:25.787Z,4.60
2019-04-04T05:30:57.486Z,4.66
2019-04-04T05:33:31.536Z,4.58
2019-04-04T05:36:05.003Z,4.69
2019-04-04T05:38:36.031Z,4.57
2019-04-04T05:41:07.789Z,4.68
2019-04-04T05:43:39.806Z,4.60
2019-04-04T05:46:12.196Z,4.57
2019-04-04T05:48:43.902Z,4.61
2019-04-04T05:51:16.043Z,4.73
2019-04-04T05:53:47.793Z,4.70
2019-04-04T05:56:19.520Z,4.65
2019-04-04T05:58:53.139Z,4.64
2019-04-04T06:01:24.723Z,4.74
2019-04-04T06:03:56.453Z,4.71
2019-04-04T06:06:28.246Z,4.70
2019-04-04T06:09:00.279Z,4.72
2019-04-04T06:11:31.952Z,4.85
2019-04-04T06:14:04.170Z,4.76
2019-04-04T06:16:35.868Z,4.64
2019-04-04T06:19:08.023Z,4.63
2019-04-04T06:21:39.729Z,4.54
2019-04-04T06:24:11.816Z,4.68
2019-04-04T06:26:52.272Z,4.86
2019-04-04T06:29:23.971Z,4.78
2019-04-04T06:31:55.774Z,4.73
2019-04-04T06:34:27.454Z,4.72
2019-04-04T06:36:59.180Z,4.69
2019-04-04T06:39:31.171Z,4.67
2019-04-04T06:42:03.266Z,4.72
2019-04-04T06:44:36.724Z,4.61
2019-04-04T06:47:08.471Z,4.59
2019-04-04T06:49:40.256Z,4.51
2019-04-04T06:52:11.957Z,4.67
2019-04-04T06:54:43.644Z,4.64
2019-04-04T06:57:15.616Z,4.66
2019-04-04T06:59:47.303Z,4.61
2019-04-04T07:02:19.000Z,4.62
2019-04-04T07:04:50.692Z,4.64
2019-04-04T07:07:22.479Z,4.60
2019-04-04T07:09:54.248Z,4.58
2019-04-04T07:12:28.384Z,4.47
2019-04-04T07:14:59.780Z,4.41
2019-04-04T07:17:31.783Z,4.28
2019-04-04T07:20:03.610Z,4.40
2019-04-04T07:22:35.395Z,4.38
2019-04-04T07:25:07.843Z,4.38
2019-04-04T07:27:39.890Z,4.46
2019-04-04T07:30:15.272Z,4.54
2019-04-04T07:32:46.372Z,4.53
2019-04-04T07:35:20.929Z,4.51
2019-04-04T07:37:55.265Z,4.47
2019-04-04T07:40:24.857Z,4.16
2019-04-04T07:42:56.544Z,4.14
2019-04-04T07:45:28.311Z,4.41
2019-04-04T07:48:00.007Z,4.36
2019-04-04T07:50:31.716Z,4.56
2019-04-04T07:53:04.821Z,4.55
2019-04-04T07:55:40.135Z,4.60
2019-04-04T07:58:11.887Z,4.69
2019-04-04T08:00:43.578Z,4.45
2019-04-04T08:03:15.656Z,4.38
2019-04-04T08:05:47.349Z,4.64
2019-04-04T08:08:19.039Z,4.40
2019-04-04T08:10:50.803Z,4.58
2019-04-04T08:13:22.509Z,4.40
2019-04-04T08:15:54.548Z,4.50
2019-04-04T08:18:26.257Z,4.62
2019-04-04T08:20:58.116Z,4.84
2019-04-04T08:23:29.839Z,4.62
2019-04-04T08:26:01.892Z,4.68
2019-04-04T08:28:33.576Z,4.79
2019-04-04T08:31:05.291Z,4.72
2019-04-04T08:33:37.061Z,4.45
2019-04-04T08:36:08.903Z,4.39
2019-04-04T08:38:40.741Z,4.45
2019-04-04T08:41:12.426Z,4.46
2019-04-04T08:43:44.690Z,4.37
2019-04-04T08:46:16.459Z,4.29
2019-04-04T08:48:48.149Z,4.28
2019-04-04T08:51:19.846Z,4.18
2019-04-04T08:53:51.641Z,4.30
2019-04-04T08:56:23.401Z,4.15
2019-04-04T08:58:55.379Z,4.27
2019-04-04T09:01:27.218Z,4.39
2019-04-04T09:03:58.969Z,4.50
2019-04-04T09:06:30.722Z,4.70
2019-04-04T09:09:03.880Z,4.64
2019-04-04T09:11:35.739Z,4.56
2019-04-04T09:14:07.517Z,4.58
2019-04-04T09:16:39.199Z,4.53
2019-04-04T09:19:11.802Z,4.64
2019-04-04T09:21:43.516Z,4.54
2019-04-04T09:24:15.226Z,4.80
2019-04-04T09:26:46.926Z,4.95
2019-04-04T09:29:18.628Z,4.85
2019-04-04T09:31:50.339Z,4.74
2019-04-04T09:34:22.118Z,4.84
2019-04-04T09:36:53.807Z,4.86
2019-04-04T09:39:25.507Z,4.90
2019-04-04T09:41:57.387Z,4.73
2019-04-04T09:44:29.077Z,4.70
2019-04-04T09:47:05.714Z,4.77
2019-04-04T09:49:35.347Z,4.81
2019-04-04T09:52:07.124Z,4.60
2019-04-04T09:54:38.879Z,4.74
2019-04-04T09:57:11.498Z,4.83
2019-04-04T09:59:43.212Z,4.72
2019-04-04T10:02:14.918Z,4.77
2019-04-04T10:04:46.792Z,4.83
2019-04-04T10:07:18.506Z,4.90
2019-04-04T10:09:50.405Z,4.82
2019-04-04T10:12:22.453Z,4.87
2019-04-04T10:14:54.144Z,4.98
2019-04-04T10:17:25.832Z,4.94
2019-04-04T10:19:57.596Z,4.97
2019-04-04T10:22:29.583Z,5.09
2019-04-04T10:25:01.743Z,5.17
2019-04-04T10:27:33.456Z,4.80
2019-04-04T10:30:06.241Z,5.06
2019-04-04T10:32:37.946Z,4.79
2019-04-04T10:35:10.145Z,4.95
2019-04-04T10:37:42.177Z,5.23
2019-04-04T10:40:14.073Z,5.14
2019-04-04T10:42:45.771Z,4.53
2019-04-04T10:45:17.662Z,4.71
2019-04-04T10:47:49.428Z,4.81
2019-04-04T10:50:21.201Z,5.13
2019-04-04T10:52:52.984Z,5.18
2019-04-04T10:55:24.733Z,5.04
2019-04-04T10:57:56.453Z,5.16
2019-04-04T11:00:28.295Z,5.07
2019-04-04T11:03:00.065Z,5.00
2019-04-04T11:05:31.763Z,4.92
2019-04-04T11:08:03.780Z,4.98
2019-04-04T11:10:35.550Z,4.98
2019-04-04T11:13:07.628Z,5.05
2019-04-04T11:15:39.310Z,4.89
2019-04-04T11:18:12.137Z,5.10
2019-04-04T11:20:43.814Z,5.29
2019-04-04T11:23:16.498Z,5.25
2019-04-04T11:25:49.152Z,5.27
2019-04-04T11:28:20.919Z,5.41
2019-04-04T11:30:52.677Z,5.56
2019-04-04T11:33:24.445Z,5.63
2019-04-04T11:35:56.150Z,5.91
2019-04-04T11:38:27.874Z,5.82
2019-04-04T11:40:59.909Z,5.90
2019-04-04T11:43:31.642Z,5.87
2019-04-04T11:46:03.398Z,5.96
2019-04-04T11:48:35.085Z,5.98
2019-04-04T11:51:07.028Z,6.08
2019-04-04T11:53:38.754Z,6.03
2019-04-04T11:56:11.110Z,6.11
2019-04-04T11:58:43.116Z,6.01
2019-04-04T12:01:15.178Z,5.89
2019-04-04T12:03:46.876Z,5.88
2019-04-04T12:06:18.574Z,5.84
2019-04-04T12:08:50.286Z,5.80
2019-04-04T12:11:22.830Z,5.86
2019-04-04T12:13:54.900Z,5.96
2019-04-04T12:16:26.575Z,5.95
2019-04-04T12:18:58.264Z,5.82
2019-04-04T12:21:29.949Z,5.78
2019-04-04T12:24:01.725Z,5.73
2019-04-04T12:26:33.392Z,5.69
2019-04-04T12:29:05.151Z,5.83
2019-04-04T12:31:36.828Z,5.82
2019-04-04T12:34:08.529Z,5.81
2019-04-04T12:36:40.500Z,5.67
2019-04-04T12:39:12.193Z,5.64
2019-04-04T12:41:43.876Z,5.79
2019-04-04T12:44:15.584Z,5.75
2019-04-04T12:46:47.255Z,5.73
2019-04-04T12:49:18.942Z,5.81
2019-04-04T12:51:51.261Z,5.78
2019-04-04T12:54:22.962Z,5.73
2019-04-04T12:56:54.724Z,5.74
2019-04-04T12:59:26.425Z,5.75
2019-04-04T13:01:58.128Z,5.74
2019-04-04T13:04:31.741Z,5.67
2019-04-04T13:07:03.642Z,5.58
2019-04-04T13:09:35.335Z,5.58
2019-04-04T13:12:07.377Z,5.58
2019-04-04T13:14:39.441Z,5.68
2019-04-04T13:17:11.705Z,5.63
2019-04-04T13:19:43.656Z,5.79
2019-04-04T13:22:15.404Z,5.76
2019-04-04T13:24:47.194Z,5.68
2019-04-04T13:27:18.978Z,5.65
2019-04-04T13:29:50.662Z,5.54
2019-04-04T13:32:22.483Z,5.62
2019-04-04T13:34:59.418Z,5.51
2019-04-04T13:37:27.926Z,5.56
2019-04-04T13:39:59.641Z,5.34
2019-04-04T13:42:31.317Z,5.18
2019-04-04T13:45:03.513Z,5.37
2019-04-04T13:47:38.283Z,5.17
2019-04-04T13:50:12.298Z,5.16
2019-04-04T13:52:42.863Z,5.04
2019-04-04T13:55:14.704Z,4.94
2019-04-04T13:57:47.592Z,4.77
2019-04-04T14:00:21.872Z,4.86
2019-04-04T14:02:53.559Z,4.84
2019-04-04T14:05:25.354Z,4.97
2019-04-04T14:08:00.310Z,5.00
2019-04-04T14:10:30.477Z,5.02
2019-04-04T14:13:02.235Z,5.01
2019-04-04T14:15:34.004Z,5.07
2019-04-04T14:18:22.174Z,5.04
2019-04-04T14:21:03.565Z,4.98
2019-04-04T14:23:29.643Z,4.90
2019-04-04T14:26:01.422Z,4.90
2019-04-04T14:28:33.188Z,4.88
2019-04-04T14:31:04.959Z,4.84
2019-04-04T14:33:36.652Z,4.90
2019-04-04T14:36:08.353Z,4.91
2019-04-04T14:38:40.029Z,4.89
2019-04-04T14:41:12.048Z,4.79
2019-04-04T14:43:43.804Z,4.86
2019-04-04T14:46:15.605Z,4.72
2019-04-04T14:48:47.331Z,4.59
2019-04-04T14:51:19.532Z,4.48
2019-04-04T14:53:51.353Z,4.52
2019-04-04T14:56:23.414Z,4.46
2019-04-04T14:58:55.116Z,4.60
2019-04-04T15:01:27.424Z,4.63
2019-04-04T15:03:59.199Z,4.55
2019-04-04T15:06:30.968Z,4.48
2019-04-04T15:09:03.024Z,4.38
2019-04-04T15:11:35.529Z,4.37
2019-04-04T15:14:07.292Z,4.36
2019-04-04T15:16:39.049Z,4.31
2019-04-04T15:19:12.352Z,4.35
2019-04-04T15:21:44.083Z,4.24
2019-04-04T15:24:15.772Z,4.25
2019-04-04T15:26:47.006Z,4.28
2019-04-04T15:29:18.717Z,4.33
2019-04-04T15:31:50.508Z,4.14
2019-04-04T15:34:22.218Z,4.21
2019-04-04T15:36:53.941Z,4.17
2019-04-04T15:39:25.659Z,4.10
2019-04-04T15:41:57.371Z,4.05
2019-04-04T15:44:30.198Z,3.98
2019-04-04T15:47:01.914Z,3.96
2019-04-04T15:49:33.712Z,3.85
2019-04-04T15:52:05.579Z,3.78
2019-04-04T15:54:37.352Z,3.90
2019-04-04T15:57:09.042Z,3.85
2019-04-04T15:59:40.741Z,3.78
2019-04-04T16:02:12.510Z,3.85
2019-04-04T16:04:44.602Z,3.80
2019-04-04T16:07:16.465Z,3.86
2019-04-04T16:09:48.162Z,3.87
2019-04-04T16:12:19.865Z,3.79
2019-04-04T16:14:51.582Z,3.80
2019-04-04T16:17:23.772Z,3.67
2019-04-04T16:19:55.601Z,3.76
2019-04-04T16:22:27.423Z,3.76
2019-04-04T16:24:59.288Z,3.70
2019-04-04T16:27:31.130Z,3.64
2019-04-04T16:30:03.067Z,3.69
2019-04-04T16:32:34.830Z,3.76
2019-04-04T16:35:06.760Z,3.71
2019-04-04T16:37:38.827Z,3.68
2019-04-04T16:40:12.419Z,3.74
2019-04-04T16:42:44.322Z,3.61
2019-04-04T16:45:16.346Z,3.66
2019-04-04T16:47:48.128Z,3.67
2019-04-04T16:50:20.792Z,3.65
2019-04-04T16:52:52.557Z,3.71
2019-04-04T16:55:24.695Z,3.68
2019-04-04T16:57:56.409Z,3.79
2019-04-04T17:00:29.629Z,3.77
2019-04-04T17:03:01.324Z,3.82
2019-04-04T17:05:33.101Z,3.81
2019-04-04T17:08:05.202Z,3.76
2019-04-04T17:10:36.928Z,3.79
2019-04-04T17:13:10.082Z,3.84
2019-04-04T17:15:41.785Z,3.83
2019-04-04T17:18:14.168Z,3.82
2019-04-04T17:20:45.863Z,3.68
2019-04-04T17:23:17.728Z,3.65
2019-04-04T17:25:49.791Z,3.65
2019-04-04T17:28:21.571Z,3.59
2019-04-04T17:30:53.344Z,3.67
2019-04-04T17:33:25.289Z,3.63
2019-04-04T17:35:57.236Z,3.61
2019-04-04T17:38:29.653Z,3.51
2019-04-04T17:41:02.196Z,3.53
2019-04-04T17:43:34.557Z,3.60
2019-04-04T17:46:06.877Z,3.64
2019-04-04T17:48:39.052Z,3.63
2019-04-04T17:51:11.498Z,3.65
2019-04-04T17:53:44.666Z,3.63
2019-04-04T17:56:16.796Z,3.58
2019-04-04T17:58:48.680Z,3.54
2019-04-04T18:01:20.553Z,3.55
2019-04-04T18:03:52.442Z,3.61
2019-04-04T18:06:24.282Z,3.73
2019-04-04T18:08:56.141Z,3.77
2019-04-04T18:11:28.116Z,3.71
2019-04-04T18:14:00.089Z,3.78
2019-04-04T18:16:31.918Z,3.75
2019-04-04T18:19:03.980Z,3.81
2019-04-04T18:21:35.974Z,3.76
2019-04-04T18:24:07.945Z,3.58
2019-04-04T18:26:39.734Z,3.78
2019-04-04T18:29:12.298Z,3.80
2019-04-04T18:31:44.129Z,3.71
2019-04-04T18:34:16.026Z,3.43
2019-04-04T18:36:47.735Z,3.40
2019-04-04T18:39:19.638Z,3.55
2019-04-04T18:41:51.314Z,3.61
2019-04-04T18:44:23.086Z,3.60
2019-04-04T18:46:54.777Z,3.50
2019-04-04T18:49:26.608Z,3.53
2019-04-04T18:51:58.368Z,3.50
2019-04-04T18:54:30.082Z,3.33
2019-04-04T18:57:01.808Z,3.28
2019-04-04T18:59:33.541Z,3.32
2019-04-04T19:02:05.389Z,3.16
2019-04-04T19:04:37.514Z,3.26
2019-04-04T19:07:09.192Z,3.20
2019-04-04T19:09:40.921Z,3.24
2019-04-04T19:12:13.123Z,3.12
2019-04-04T19:14:44.889Z,3.14
2019-04-04T19:17:16.727Z,3.04
2019-04-04T19:19:48.456Z,3.20
2019-04-04T19:22:20.303Z,3.19
2019-04-04T19:24:52.087Z,3.27
2019-04-04T19:27:23.849Z,3.11
2019-04-04T19:29:55.559Z,3.21
2019-04-04T19:32:27.256Z,3.23
2019-04-04T19:34:59.030Z,3.23
2019-04-04T19:37:31.277Z,3.19
2019-04-04T19:40:03.051Z,3.06
2019-04-04T19:42:34.844Z,2.98
2019-04-04T19:45:08.355Z,3.16
2019-04-04T19:47:40.120Z,3.15
2019-04-04T19:50:13.350Z,3.15
2019-04-04T19:52:45.446Z,3.08
2019-04-04T19:55:17.236Z,3.11
2019-04-04T19:57:49.259Z,3.00
2019-04-04T20:00:22.969Z,3.08
2019-04-04T20:02:54.669Z,3.07
2019-04-04T20:05:26.864Z,3.05
2019-04-04T20:07:58.644Z,3.02
2019-04-04T20:10:30.920Z,3.01
2019-04-04T20:13:02.611Z,3.10
2019-04-04T20:15:34.329Z,3.07
2019-04-04T20:18:06.193Z,3.11
2019-04-04T20:20:37.976Z,3.08
2019-04-04T20:23:10.990Z,3.04
2019-04-04T20:25:43.087Z,2.96
2019-04-04T20:28:14.863Z,2.98
2019-04-04T20:30:46.599Z,3.12
2019-04-04T20:33:18.282Z,3.14
2019-04-04T20:35:50.018Z,3.07
2019-04-04T20:38:21.818Z,3.09
2019-04-04T20:40:53.533Z,3.03
2019-04-04T20:43:25.313Z,2.87
2019-04-04T20:45:57.118Z,2.97
2019-04-04T20:48:28.975Z,2.94
2019-04-04T20:51:01.795Z,3.04
2019-04-04T20:53:33.494Z,3.09
2019-04-04T20:56:05.211Z,2.99
2019-04-04T20:58:37.343Z,3.03
2019-04-04T21:01:09.111Z,2.92
2019-04-04T21:03:40.825Z,2.94
2019-04-04T21:06:12.528Z,2.68
2019-04-04T21:08:44.233Z,3.00
2019-04-04T21:11:15.960Z,3.09
2019-04-04T21:13:56.009Z,3.04
2019-04-04T21:16:22.179Z,3.02
2019-04-04T21:18:53.924Z,2.94
2019-04-04T21:21:26.054Z,3.06
2019-04-04T21:23:57.758Z,3.03
2019-04-04T21:26:29.561Z,3.16
2019-04-04T21:29:01.266Z,3.01
2019-04-04T21:31:32.971Z,3.14
2019-04-04T21:34:04.667Z,2.99
2019-04-04T21:36:36.443Z,3.12
2019-04-04T21:39:09.131Z,3.10
2019-04-04T21:41:40.853Z,3.18
2019-04-04T21:44:12.866Z,3.04
2019-04-04T21:46:44.571Z,3.11
2019-04-04T21:49:16.264Z,3.08
2019-04-04T21:51:48.243Z,3.07
2019-04-04T21:54:19.954Z,2.93
2019-04-04T21:56:51.654Z,2.97
2019-04-04T21:59:23.346Z,3.16
2019-04-04T22:01:55.194Z,3.14
2019-04-04T22:04:27.055Z,2.87
2019-04-04T22:06:59.145Z,3.14
2019-04-04T22:09:33.611Z,3.10
2019-04-04T22:12:04.434Z,3.09
2019-04-04T22:14:36.132Z,3.01
2019-04-04T22:17:08.345Z,3.07
2019-04-04T22:19:40.066Z,2.97
2019-04-04T22:22:12.267Z,3.09
2019-04-04T22:24:45.068Z,2.91
2019-04-04T22:27:16.818Z,2.90
2019-04-04T22:29:48.590Z,2.93
2019-04-04T22:32:20.365Z,3.02
2019-04-04T22:34:52.136Z,2.94
2019-04-04T22:37:23.846Z,2.85
2019-04-04T22:39:55.867Z,3.12
2019-04-04T22:42:27.595Z,3.14
2019-04-04T22:44:59.271Z,3.14
2019-04-04T22:47:30.976Z,3.14
2019-04-04T22:50:02.675Z,3.09
2019-04-04T22:52:34.409Z,3.01
2019-04-04T22:55:06.562Z,3.23
2019-04-04T22:57:38.337Z,3.31
2019-04-04T23:00:11.070Z,3.29
2019-04-04T23:02:43.638Z,3.26
2019-04-04T23:05:15.489Z,3.10
2019-04-04T23:07:47.199Z,3.05
2019-04-04T23:10:18.895Z,3.19
2019-04-04T23:12:50.941Z,3.17
2019-04-04T23:15:22.633Z,3.30
2019-04-04T23:17:54.435Z,3.27
2019-04-04T23:20:26.123Z,3.23
2019-04-04T23:22:57.828Z,3.21
2019-04-04T23:25:30.136Z,3.30
2019-04-04T23:28:01.850Z,3.31
2019-04-04T23:30:33.917Z,3.30
2019-04-04T23:33:06.334Z,3.17
2019-04-04T23:35:39.634Z,3.11
2019-04-04T23:38:12.320Z,3.06
2019-04-04T23:40:44.023Z,3.09
2019-04-04T23:43:15.733Z,3.14
2019-04-04T23:45:47.699Z,2.85
2019-04-04T23:48:19.422Z,2.98
2019-04-04T23:50:51.397Z,3.04
2019-04-04T23:53:23.116Z,3.24
2019-04-04T23:55:54.817Z,3.20
2019-04-04T23:58:26.524Z,3.09
